sensor_id;sensor_type;location;lat;lon;timestamp;temperature;humidity
8402;DHT22;4238;48.404;9.498;2023-02-11T00:00:39;-4.40;1.00
8402;DHT22;4238;48.404;9.498;2023-02-11T00:03:07;-4.20;1.00
8402;DHT22;4238;48.404;9.498;2023-02-11T00:05:34;-4.20;1.00
8402;DHT22;4238;48.404;9.498;2023-02-11T00:08:02;-4.20;1.00
8402;DHT22;4238;48.404;9.498;2023-02-11T00:10:29;-4.00;1.00
8402;DHT22;4238;48.404;9.498;2023-02-11T00:12:56;-3.70;1.00
8402;DHT22;4238;48.404;9.498;2023-02-11T00:15:23;-3.60;1.00
8402;DHT22;4238;48.404;9.498;2023-02-11T00:17:50;-3.70;1.00
8402;DHT22;4238;48.404;9.498;2023-02-11T00:20:17;-4.10;1.00
8402;DHT22;4238;48.404;9.498;2023-02-11T00:22:44;-4.30;1.00
8402;DHT22;4238;48.404;9.498;2023-02-11T00:25:12;-4.50;1.00
8402;DHT22;4238;48.404;9.498;2023-02-11T00:27:39;-4.70;1.00
8402;DHT22;4238;48.404;9.498;2023-02-11T00:30:07;-4.70;1.00
8402;DHT22;4238;48.404;9.498;2023-02-11T00:32:34;-4.80;1.00
8402;DHT22;4238;48.404;9.498;2023-02-11T00:35:01;-4.70;10.70
8402;DHT22;4238;48.404;9.498;2023-02-11T00:37:28;-4.70;17.30
8402;DHT22;4238;48.404;9.498;2023-02-11T00:39:54;-4.70;18.00
8402;DHT22;4238;48.404;9.498;2023-02-11T00:42:23;-4.70;1.00
8402;DHT22;4238;48.404;9.498;2023-02-11T00:44:50;-4.80;7.20
8402;DHT22;4238;48.404;9.498;2023-02-11T00:47:16;-4.60;5.00
8402;DHT22;4238;48.404;9.498;2023-02-11T00:49:43;-4.60;1.00
8402;DHT22;4238;48.404;9.498;2023-02-11T00:52:10;-4.40;1.00
8402;DHT22;4238;48.404;9.498;2023-02-11T00:54:37;-4.50;1.00
8402;DHT22;4238;48.404;9.498;2023-02-11T00:57:04;-4.60;1.00
8402;DHT22;4238;48.404;9.498;2023-02-11T00:59:32;-4.50;1.00
8402;DHT22;4238;48.404;9.498;2023-02-11T01:01:59;-4.50;1.00
8402;DHT22;4238;48.404;9.498;2023-02-11T01:04:26;-4.70;15.40
8402;DHT22;4238;48.404;9.498;2023-02-11T01:06:53;-4.70;31.80
8402;DHT22;4238;48.404;9.498;2023-02-11T01:09:20;-4.60;44.30
8402;DHT22;4238;48.404;9.498;2023-02-11T01:11:47;-4.70;24.50
8402;DHT22;4238;48.404;9.498;2023-02-11T01:14:14;-4.80;3.70
8402;DHT22;4238;48.404;9.498;2023-02-11T01:16:42;-4.80;8.10
8402;DHT22;4238;48.404;9.498;2023-02-11T01:19:09;-4.60;11.00
8402;DHT22;4238;48.404;9.498;2023-02-11T01:21:36;-4.50;1.00
8402;DHT22;4238;48.404;9.498;2023-02-11T01:24:03;-4.60;1.00
8402;DHT22;4238;48.404;9.498;2023-02-11T01:26:30;-4.70;1.00
8402;DHT22;4238;48.404;9.498;2023-02-11T01:28:57;-4.70;1.00
8402;DHT22;4238;48.404;9.498;2023-02-11T01:31:25;-4.80;1.00
8402;DHT22;4238;48.404;9.498;2023-02-11T01:33:53;-4.80;1.00
8402;DHT22;4238;48.404;9.498;2023-02-11T01:36:20;-4.90;1.00
8402;DHT22;4238;48.404;9.498;2023-02-11T01:38:47;-4.90;9.20
8402;DHT22;4238;48.404;9.498;2023-02-11T01:41:14;-4.90;13.40
8402;DHT22;4238;48.404;9.498;2023-02-11T01:43:43;-4.80;1.00
8402;DHT22;4238;48.404;9.498;2023-02-11T01:46:30;-4.70;1.00
8402;DHT22;4238;48.404;9.498;2023-02-11T01:49:03;-4.80;1.00
8402;DHT22;4238;48.404;9.498;2023-02-11T01:51:34;-4.80;1.00
8402;DHT22;4238;48.404;9.498;2023-02-11T01:54:03;-4.80;1.00
8402;DHT22;4238;48.404;9.498;2023-02-11T01:56:51;-4.70;1.00
8402;DHT22;4238;48.404;9.498;2023-02-11T01:59:40;-4.70;1.00
8402;DHT22;4238;48.404;9.498;2023-02-11T02:02:10;-4.80;1.00
8402;DHT22;4238;48.404;9.498;2023-02-11T02:04:45;-4.80;1.00
8402;DHT22;4238;48.404;9.498;2023-02-11T02:07:16;-4.90;1.00
8402;DHT22;4238;48.404;9.498;2023-02-11T02:09:51;-4.90;1.00
8402;DHT22;4238;48.404;9.498;2023-02-11T02:12:22;-5.10;5.80
8402;DHT22;4238;48.404;9.498;2023-02-11T02:14:49;-5.10;10.80
8402;DHT22;4238;48.404;9.498;2023-02-11T02:17:25;-4.80;1.00
8402;DHT22;4238;48.404;9.498;2023-02-11T02:20:12;-4.90;1.00
8402;DHT22;4238;48.404;9.498;2023-02-11T02:23:08;-5.10;1.00
8402;DHT22;4238;48.404;9.498;2023-02-11T02:29:05;-5.20;1.00
8402;DHT22;4238;48.404;9.498;2023-02-11T02:31:49;-5.20;1.00
8402;DHT22;4238;48.404;9.498;2023-02-11T02:34:25;-4.80;1.00
8402;DHT22;4238;48.404;9.498;2023-02-11T02:36:59;-5.00;1.00
8402;DHT22;4238;48.404;9.498;2023-02-11T02:39:33;-5.20;1.00
8402;DHT22;4238;48.404;9.498;2023-02-11T02:42:01;-5.20;1.00
8402;DHT22;4238;48.404;9.498;2023-02-11T02:44:29;-5.30;1.00
8402;DHT22;4238;48.404;9.498;2023-02-11T02:46:56;-5.30;16.60
8402;DHT22;4238;48.404;9.498;2023-02-11T02:49:24;-5.10;3.00
8402;DHT22;4238;48.404;9.498;2023-02-11T02:52:03;-4.90;3.00
8402;DHT22;4238;48.404;9.498;2023-02-11T02:57:33;-4.60;1.00
8402;DHT22;4238;48.404;9.498;2023-02-11T03:00:13;-4.70;1.00
8402;DHT22;4238;48.404;9.498;2023-02-11T03:02:52;-4.80;1.00
8402;DHT22;4238;48.404;9.498;2023-02-11T03:05:30;-4.80;6.40
8402;DHT22;4238;48.404;9.498;2023-02-11T03:08:03;-4.80;15.10
8402;DHT22;4238;48.404;9.498;2023-02-11T03:10:36;-4.80;7.50
8402;DHT22;4238;48.404;9.498;2023-02-11T03:13:04;-4.90;1.00
8402;DHT22;4238;48.404;9.498;2023-02-11T03:15:36;-5.00;5.90
8402;DHT22;4238;48.404;9.498;2023-02-11T03:18:05;-5.10;9.90
8402;DHT22;4238;48.404;9.498;2023-02-11T03:20:37;-5.00;24.50
8402;DHT22;4238;48.404;9.498;2023-02-11T03:23:10;-5.00;25.20
8402;DHT22;4238;48.404;9.498;2023-02-11T03:25:43;-5.00;15.40
8402;DHT22;4238;48.404;9.498;2023-02-11T03:28:15;-4.90;20.30
8402;DHT22;4238;48.404;9.498;2023-02-11T03:30:47;-4.90;21.70
8402;DHT22;4238;48.404;9.498;2023-02-11T03:33:19;-4.80;13.00
8402;DHT22;4238;48.404;9.498;2023-02-11T03:35:53;-4.70;1.40
8402;DHT22;4238;48.404;9.498;2023-02-11T03:38:24;-4.70;1.00
8402;DHT22;4238;48.404;9.498;2023-02-11T03:40:55;-4.80;16.00
8402;DHT22;4238;48.404;9.498;2023-02-11T03:43:26;-4.70;31.00
8402;DHT22;4238;48.404;9.498;2023-02-11T03:45:55;-4.60;23.50
8402;DHT22;4238;48.404;9.498;2023-02-11T03:48:24;-4.60;18.50
8402;DHT22;4238;48.404;9.498;2023-02-11T03:50:54;-4.60;13.60
8402;DHT22;4238;48.404;9.498;2023-02-11T03:53:22;-4.50;1.00
8402;DHT22;4238;48.404;9.498;2023-02-11T03:55:50;-4.60;1.00
8402;DHT22;4238;48.404;9.498;2023-02-11T03:58:18;-4.70;2.00
8402;DHT22;4238;48.404;9.498;2023-02-11T04:00:45;-4.80;5.70
8402;DHT22;4238;48.404;9.498;2023-02-11T04:03:12;-4.90;12.40
8402;DHT22;4238;48.404;9.498;2023-02-11T04:05:39;-4.80;19.10
8402;DHT22;4238;48.404;9.498;2023-02-11T04:08:08;-4.80;14.30
8402;DHT22;4238;48.404;9.498;2023-02-11T04:10:35;-4.90;15.00
8402;DHT22;4238;48.404;9.498;2023-02-11T04:13:01;-4.70;19.60
8402;DHT22;4238;48.404;9.498;2023-02-11T04:15:28;-4.50;11.20
8402;DHT22;4238;48.404;9.498;2023-02-11T04:17:55;-4.40;1.00
8402;DHT22;4238;48.404;9.498;2023-02-11T04:20:22;-4.30;1.00
8402;DHT22;4238;48.404;9.498;2023-02-11T04:22:49;-4.20;1.00
8402;DHT22;4238;48.404;9.498;2023-02-11T04:25:18;-4.20;1.00
8402;DHT22;4238;48.404;9.498;2023-02-11T04:27:45;-4.20;1.00
8402;DHT22;4238;48.404;9.498;2023-02-11T04:30:12;-4.10;1.00
8402;DHT22;4238;48.404;9.498;2023-02-11T04:32:39;-4.30;2.40
8402;DHT22;4238;48.404;9.498;2023-02-11T04:35:06;-4.30;24.60
8402;DHT22;4238;48.404;9.498;2023-02-11T04:37:33;-4.30;29.40
8402;DHT22;4238;48.404;9.498;2023-02-11T04:40:01;-4.20;42.40
8402;DHT22;4238;48.404;9.498;2023-02-11T04:42:29;-4.10;29.20
8402;DHT22;4238;48.404;9.498;2023-02-11T04:44:56;-4.00;42.60
8402;DHT22;4238;48.404;9.498;2023-02-11T04:47:23;-3.90;29.40
8402;DHT22;4238;48.404;9.498;2023-02-11T04:49:50;-3.90;34.30
8402;DHT22;4238;48.404;9.498;2023-02-11T04:52:16;-3.80;32.10
8402;DHT22;4238;48.404;9.498;2023-02-11T04:54:45;-3.80;33.60
8402;DHT22;4238;48.404;9.498;2023-02-11T04:57:12;-3.80;22.30
8402;DHT22;4238;48.404;9.498;2023-02-11T04:59:41;-3.80;17.30
8402;DHT22;4238;48.404;9.498;2023-02-11T05:02:07;-3.70;27.10
8402;DHT22;4238;48.404;9.498;2023-02-11T05:04:34;-3.60;27.00
8402;DHT22;4238;48.404;9.498;2023-02-11T05:07:01;-3.50;33.80
8402;DHT22;4238;48.404;9.498;2023-02-11T05:09:28;-3.40;34.80
8402;DHT22;4238;48.404;9.498;2023-02-11T05:11:55;-3.30;28.70
8402;DHT22;4238;48.404;9.498;2023-02-11T05:14:22;-3.10;25.60
8402;DHT22;4238;48.404;9.498;2023-02-11T05:16:50;-3.10;12.10
8402;DHT22;4238;48.404;9.498;2023-02-11T05:19:17;-3.20;13.40
8402;DHT22;4238;48.404;9.498;2023-02-11T05:21:44;-3.20;19.00
8402;DHT22;4238;48.404;9.498;2023-02-11T05:24:11;-3.20;18.60
8402;DHT22;4238;48.404;9.498;2023-02-11T05:26:38;-3.20;21.60
8402;DHT22;4238;48.404;9.498;2023-02-11T05:29:05;-3.20;21.50
8402;DHT22;4238;48.404;9.498;2023-02-11T05:31:31;-3.20;35.40
8402;DHT22;4238;48.404;9.498;2023-02-11T05:34:00;-3.10;38.30
8402;DHT22;4238;48.404;9.498;2023-02-11T05:36:28;-3.10;26.30
8402;DHT22;4238;48.404;9.498;2023-02-11T05:38:55;-3.00;20.40
8402;DHT22;4238;48.404;9.498;2023-02-11T05:41:22;-3.00;15.80
8402;DHT22;4238;48.404;9.498;2023-02-11T05:43:49;-3.00;19.20
8402;DHT22;4238;48.404;9.498;2023-02-11T05:46:17;-3.00;22.90
8402;DHT22;4238;48.404;9.498;2023-02-11T05:48:44;-3.00;31.30
8402;DHT22;4238;48.404;9.498;2023-02-11T05:51:12;-2.90;35.80
8402;DHT22;4238;48.404;9.498;2023-02-11T05:53:39;-2.90;36.20
8402;DHT22;4238;48.404;9.498;2023-02-11T05:56:06;-3.00;32.70
8402;DHT22;4238;48.404;9.498;2023-02-11T05:58:33;-2.80;32.40
8402;DHT22;4238;48.404;9.498;2023-02-11T06:01:00;-2.90;28.20
8402;DHT22;4238;48.404;9.498;2023-02-11T06:03:27;-3.00;28.60
8402;DHT22;4238;48.404;9.498;2023-02-11T06:05:53;-3.10;39.10
8402;DHT22;4238;48.404;9.498;2023-02-11T06:08:22;-3.10;39.80
8402;DHT22;4238;48.404;9.498;2023-02-11T06:10:49;-3.10;41.80
8402;DHT22;4238;48.404;9.498;2023-02-11T06:13:16;-3.00;44.50
8402;DHT22;4238;48.404;9.498;2023-02-11T06:15:44;-2.90;42.50
8402;DHT22;4238;48.404;9.498;2023-02-11T06:18:11;-2.90;30.80
8402;DHT22;4238;48.404;9.498;2023-02-11T06:20:38;-3.00;43.50
8402;DHT22;4238;48.404;9.498;2023-02-11T06:23:06;-2.90;49.50
8402;DHT22;4238;48.404;9.498;2023-02-11T06:25:34;-2.90;45.30
8402;DHT22;4238;48.404;9.498;2023-02-11T06:28:01;-2.70;41.60
8402;DHT22;4238;48.404;9.498;2023-02-11T06:30:28;-2.70;43.10
8402;DHT22;4238;48.404;9.498;2023-02-11T06:32:55;-2.70;42.30
8402;DHT22;4238;48.404;9.498;2023-02-11T06:35:22;-2.70;45.80
8402;DHT22;4238;48.404;9.498;2023-02-11T06:37:49;-2.70;45.30
8402;DHT22;4238;48.404;9.498;2023-02-11T06:40:18;-2.60;45.80
8402;DHT22;4238;48.404;9.498;2023-02-11T06:42:47;-2.60;30.10
8402;DHT22;4238;48.404;9.498;2023-02-11T06:45:13;-2.50;23.60
8402;DHT22;4238;48.404;9.498;2023-02-11T06:47:40;-2.60;7.00
8402;DHT22;4238;48.404;9.498;2023-02-11T06:50:10;-2.70;1.00
8402;DHT22;4238;48.404;9.498;2023-02-11T06:52:38;-2.50;1.00
8402;DHT22;4238;48.404;9.498;2023-02-11T06:55:05;-2.70;1.00
8402;DHT22;4238;48.404;9.498;2023-02-11T06:57:32;-2.80;2.30
8402;DHT22;4238;48.404;9.498;2023-02-11T07:00:00;-2.70;22.30
8402;DHT22;4238;48.404;9.498;2023-02-11T07:02:27;-2.70;26.70
8402;DHT22;4238;48.404;9.498;2023-02-11T07:04:54;-2.40;33.00
8402;DHT22;4238;48.404;9.498;2023-02-11T07:07:21;-2.20;19.70
8402;DHT22;4238;48.404;9.498;2023-02-11T07:09:48;-2.20;11.60
8402;DHT22;4238;48.404;9.498;2023-02-11T07:12:15;-2.30;23.30
8402;DHT22;4238;48.404;9.498;2023-02-11T07:14:42;-2.30;25.70
8402;DHT22;4238;48.404;9.498;2023-02-11T07:17:10;-2.20;29.00
8402;DHT22;4238;48.404;9.498;2023-02-11T07:19:37;-2.20;26.70
8402;DHT22;4238;48.404;9.498;2023-02-11T07:22:04;-2.20;15.40
8402;DHT22;4238;48.404;9.498;2023-02-11T07:24:31;-2.10;13.80
8402;DHT22;4238;48.404;9.498;2023-02-11T07:26:57;-1.90;20.80
8402;DHT22;4238;48.404;9.498;2023-02-11T07:29:24;-1.90;16.90
8402;DHT22;4238;48.404;9.498;2023-02-11T07:31:51;-1.90;19.10
8402;DHT22;4238;48.404;9.498;2023-02-11T07:34:19;-1.80;1.00
8402;DHT22;4238;48.404;9.498;2023-02-11T07:36:46;-1.70;1.00
8402;DHT22;4238;48.404;9.498;2023-02-11T07:39:14;-1.60;1.00
8402;DHT22;4238;48.404;9.498;2023-02-11T07:41:41;-1.60;1.00
8402;DHT22;4238;48.404;9.498;2023-02-11T07:44:09;-1.40;1.00
8402;DHT22;4238;48.404;9.498;2023-02-11T07:46:36;-1.20;1.00
8402;DHT22;4238;48.404;9.498;2023-02-11T07:49:07;-1.10;1.00
8402;DHT22;4238;48.404;9.498;2023-02-11T07:51:35;-1.30;1.00
8402;DHT22;4238;48.404;9.498;2023-02-11T07:54:03;-1.20;1.00
8402;DHT22;4238;48.404;9.498;2023-02-11T07:56:30;-1.10;1.00
8402;DHT22;4238;48.404;9.498;2023-02-11T07:58:59;-1.10;1.00
8402;DHT22;4238;48.404;9.498;2023-02-11T08:01:28;-1.00;1.00
8402;DHT22;4238;48.404;9.498;2023-02-11T08:03:55;-1.00;1.00
8402;DHT22;4238;48.404;9.498;2023-02-11T08:06:24;-1.00;1.00
8402;DHT22;4238;48.404;9.498;2023-02-11T08:08:53;-0.90;1.00
8402;DHT22;4238;48.404;9.498;2023-02-11T08:11:23;-0.90;1.00
8402;DHT22;4238;48.404;9.498;2023-02-11T08:13:50;-0.60;1.00
8402;DHT22;4238;48.404;9.498;2023-02-11T08:16:19;-0.60;1.00
8402;DHT22;4238;48.404;9.498;2023-02-11T08:18:47;-0.50;1.00
8402;DHT22;4238;48.404;9.498;2023-02-11T08:21:14;-0.30;1.00
8402;DHT22;4238;48.404;9.498;2023-02-11T08:23:43;-0.30;1.00
8402;DHT22;4238;48.404;9.498;2023-02-11T08:26:17;-0.30;1.00
8402;DHT22;4238;48.404;9.498;2023-02-11T08:28:45;-0.30;1.00
8402;DHT22;4238;48.404;9.498;2023-02-11T08:31:15;-0.20;1.00
8402;DHT22;4238;48.404;9.498;2023-02-11T08:33:42;-0.10;1.00
8402;DHT22;4238;48.404;9.498;2023-02-11T08:36:10;-0.10;1.00
8402;DHT22;4238;48.404;9.498;2023-02-11T08:38:37;-0.20;1.00
8402;DHT22;4238;48.404;9.498;2023-02-11T08:41:05;-0.10;1.00
8402;DHT22;4238;48.404;9.498;2023-02-11T08:43:33;-0.10;1.00
8402;DHT22;4238;48.404;9.498;2023-02-11T08:46:01;0.20;1.00
8402;DHT22;4238;48.404;9.498;2023-02-11T08:48:28;0.30;1.00
8402;DHT22;4238;48.404;9.498;2023-02-11T08:50:56;0.30;1.00
8402;DHT22;4238;48.404;9.498;2023-02-11T08:53:23;0.50;1.00
8402;DHT22;4238;48.404;9.498;2023-02-11T08:55:51;0.70;1.00
8402;DHT22;4238;48.404;9.498;2023-02-11T08:58:19;0.90;1.00
8402;DHT22;4238;48.404;9.498;2023-02-11T09:00:48;1.10;1.00
8402;DHT22;4238;48.404;9.498;2023-02-11T09:03:16;1.20;1.00
8402;DHT22;4238;48.404;9.498;2023-02-11T09:05:44;1.10;1.00
8402;DHT22;4238;48.404;9.498;2023-02-11T09:08:12;1.10;1.00
8402;DHT22;4238;48.404;9.498;2023-02-11T09:10:39;1.10;1.00
8402;DHT22;4238;48.404;9.498;2023-02-11T09:13:07;1.20;1.00
8402;DHT22;4238;48.404;9.498;2023-02-11T09:15:34;1.40;1.00
8402;DHT22;4238;48.404;9.498;2023-02-11T09:18:03;1.60;1.00
8402;DHT22;4238;48.404;9.498;2023-02-11T09:20:30;1.80;1.00
8402;DHT22;4238;48.404;9.498;2023-02-11T09:22:58;2.00;1.00
8402;DHT22;4238;48.404;9.498;2023-02-11T09:25:25;1.90;99.90
8402;DHT22;4238;48.404;9.498;2023-02-11T09:27:52;2.00;1.00
8402;DHT22;4238;48.404;9.498;2023-02-11T09:30:19;2.00;1.00
8402;DHT22;4238;48.404;9.498;2023-02-11T09:32:46;2.00;1.00
8402;DHT22;4238;48.404;9.498;2023-02-11T09:35:15;1.90;1.00
8402;DHT22;4238;48.404;9.498;2023-02-11T09:37:42;2.00;1.00
8402;DHT22;4238;48.404;9.498;2023-02-11T09:40:09;2.10;1.00
8402;DHT22;4238;48.404;9.498;2023-02-11T09:42:43;2.30;1.00
8402;DHT22;4238;48.404;9.498;2023-02-11T09:45:16;2.80;99.90
8402;DHT22;4238;48.404;9.498;2023-02-11T09:47:48;3.20;99.90
8402;DHT22;4238;48.404;9.498;2023-02-11T09:50:25;3.70;1.00
8402;DHT22;4238;48.404;9.498;2023-02-11T09:52:57;4.00;19.60
8402;DHT22;4238;48.404;9.498;2023-02-11T09:55:28;4.20;25.60
8402;DHT22;4238;48.404;9.498;2023-02-11T09:57:56;4.40;33.00
8402;DHT22;4238;48.404;9.498;2023-02-11T10:00:27;4.90;1.00
8402;DHT22;4238;48.404;9.498;2023-02-11T10:03:25;5.40;1.00
8402;DHT22;4238;48.404;9.498;2023-02-11T10:09:07;6.70;1.00
8402;DHT22;4238;48.404;9.498;2023-02-11T10:11:46;7.10;1.00
8402;DHT22;4238;48.404;9.498;2023-02-11T10:14:28;7.70;99.90
8402;DHT22;4238;48.404;9.498;2023-02-11T10:17:11;7.70;99.90
8402;DHT22;4238;48.404;9.498;2023-02-11T10:19:49;7.20;99.90
8402;DHT22;4238;48.404;9.498;2023-02-11T10:22:23;7.00;99.90
8402;DHT22;4238;48.404;9.498;2023-02-11T10:24:53;7.10;1.00
8402;DHT22;4238;48.404;9.498;2023-02-11T10:27:27;7.20;1.00
8402;DHT22;4238;48.404;9.498;2023-02-11T10:29:59;8.00;99.90
8402;DHT22;4238;48.404;9.498;2023-02-11T10:32:32;8.30;52.70
8402;DHT22;4238;48.404;9.498;2023-02-11T10:35:03;8.80;1.00
8402;DHT22;4238;48.404;9.498;2023-02-11T10:37:36;8.70;1.00
8402;DHT22;4238;48.404;9.498;2023-02-11T10:40:05;9.30;1.00
8402;DHT22;4238;48.404;9.498;2023-02-11T10:42:34;9.70;99.90
8402;DHT22;4238;48.404;9.498;2023-02-11T10:45:03;9.80;99.90
8402;DHT22;4238;48.404;9.498;2023-02-11T10:47:35;10.20;99.90
8402;DHT22;4238;48.404;9.498;2023-02-11T10:50:17;10.60;99.90
8402;DHT22;4238;48.404;9.498;2023-02-11T10:52:46;10.40;34.50
8402;DHT22;4238;48.404;9.498;2023-02-11T10:55:16;9.30;12.50
8402;DHT22;4238;48.404;9.498;2023-02-11T10:57:51;8.70;94.00
8402;DHT22;4238;48.404;9.498;2023-02-11T11:00:25;8.50;99.90
8402;DHT22;4238;48.404;9.498;2023-02-11T11:02:54;8.30;99.90
8402;DHT22;4238;48.404;9.498;2023-02-11T11:05:28;8.20;99.90
8402;DHT22;4238;48.404;9.498;2023-02-11T11:07:58;8.10;99.90
8402;DHT22;4238;48.404;9.498;2023-02-11T11:10:38;7.60;99.90
8402;DHT22;4238;48.404;9.498;2023-02-11T11:13:28;7.30;1.00
8402;DHT22;4238;48.404;9.498;2023-02-11T11:16:23;7.10;1.00
8402;DHT22;4238;48.404;9.498;2023-02-11T11:18:52;6.60;99.90
8402;DHT22;4238;48.404;9.498;2023-02-11T11:21:22;6.70;99.90
8402;DHT22;4238;48.404;9.498;2023-02-11T11:23:53;7.10;1.00
8402;DHT22;4238;48.404;9.498;2023-02-11T11:26:22;7.90;99.90
8402;DHT22;4238;48.404;9.498;2023-02-11T11:28:55;8.70;1.00
8402;DHT22;4238;48.404;9.498;2023-02-11T11:31:25;9.10;1.00
8402;DHT22;4238;48.404;9.498;2023-02-11T11:33:55;9.10;99.90
8402;DHT22;4238;48.404;9.498;2023-02-11T11:36:31;9.70;99.90
8402;DHT22;4238;48.404;9.498;2023-02-11T11:39:09;10.30;99.90
8402;DHT22;4238;48.404;9.498;2023-02-11T11:41:49;10.70;99.90
8402;DHT22;4238;48.404;9.498;2023-02-11T11:44:23;10.90;7.50
8402;DHT22;4238;48.404;9.498;2023-02-11T11:49:56;11.40;1.00
8402;DHT22;4238;48.404;9.498;2023-02-11T11:52:36;11.70;1.00
8402;DHT22;4238;48.404;9.498;2023-02-11T11:55:13;11.70;1.00
8402;DHT22;4238;48.404;9.498;2023-02-11T11:57:43;11.80;1.00
8402;DHT22;4238;48.404;9.498;2023-02-11T12:00:14;12.10;1.00
8402;DHT22;4238;48.404;9.498;2023-02-11T12:03:03;12.60;1.00
8402;DHT22;4238;48.404;9.498;2023-02-11T12:05:36;12.80;1.00
8402;DHT22;4238;48.404;9.498;2023-02-11T12:08:13;12.70;1.00
8402;DHT22;4238;48.404;9.498;2023-02-11T12:10:53;12.50;1.00
8402;DHT22;4238;48.404;9.498;2023-02-11T12:13:31;12.50;1.00
8402;DHT22;4238;48.404;9.498;2023-02-11T12:16:07;12.20;1.00
8402;DHT22;4238;48.404;9.498;2023-02-11T12:18:52;12.40;1.00
8402;DHT22;4238;48.404;9.498;2023-02-11T12:21:29;12.90;1.00
8402;DHT22;4238;48.404;9.498;2023-02-11T12:24:21;12.90;1.00
8402;DHT22;4238;48.404;9.498;2023-02-11T12:27:00;13.10;1.00
8402;DHT22;4238;48.404;9.498;2023-02-11T12:29:36;12.50;1.00
8402;DHT22;4238;48.404;9.498;2023-02-11T12:32:14;12.30;1.00
8402;DHT22;4238;48.404;9.498;2023-02-11T12:35:00;12.00;1.00
8402;DHT22;4238;48.404;9.498;2023-02-11T12:37:42;11.70;1.00
8402;DHT22;4238;48.404;9.498;2023-02-11T12:40:15;11.00;1.00
8402;DHT22;4238;48.404;9.498;2023-02-11T12:42:51;10.80;1.00
8402;DHT22;4238;48.404;9.498;2023-02-11T12:45:45;10.60;1.00
8402;DHT22;4238;48.404;9.498;2023-02-11T12:48:24;10.30;1.00
8402;DHT22;4238;48.404;9.498;2023-02-11T12:51:02;10.00;1.00
8402;DHT22;4238;48.404;9.498;2023-02-11T12:53:45;10.00;1.00
8402;DHT22;4238;48.404;9.498;2023-02-11T12:56:19;10.20;1.00
8402;DHT22;4238;48.404;9.498;2023-02-11T12:58:51;10.00;1.00
8402;DHT22;4238;48.404;9.498;2023-02-11T13:01:22;9.70;1.00
8402;DHT22;4238;48.404;9.498;2023-02-11T13:03:55;9.50;1.00
8402;DHT22;4238;48.404;9.498;2023-02-11T13:06:28;9.50;1.00
8402;DHT22;4238;48.404;9.498;2023-02-11T13:09:00;9.50;1.00
8402;DHT22;4238;48.404;9.498;2023-02-11T13:11:31;9.60;1.00
8402;DHT22;4238;48.404;9.498;2023-02-11T13:14:06;9.50;1.00
8402;DHT22;4238;48.404;9.498;2023-02-11T13:16:38;9.50;1.00
8402;DHT22;4238;48.404;9.498;2023-02-11T13:19:13;9.30;1.00
8402;DHT22;4238;48.404;9.498;2023-02-11T13:21:54;9.10;1.00
8402;DHT22;4238;48.404;9.498;2023-02-11T13:24:27;9.20;1.00
8402;DHT22;4238;48.404;9.498;2023-02-11T13:27:07;9.30;1.00
8402;DHT22;4238;48.404;9.498;2023-02-11T13:29:58;9.30;1.00
8402;DHT22;4238;48.404;9.498;2023-02-11T13:33:01;9.10;1.00
8402;DHT22;4238;48.404;9.498;2023-02-11T13:35:30;8.70;1.00
8402;DHT22;4238;48.404;9.498;2023-02-11T13:37:58;8.90;1.00
8402;DHT22;4238;48.404;9.498;2023-02-11T13:40:27;8.90;1.00
8402;DHT22;4238;48.404;9.498;2023-02-11T13:42:57;9.00;1.00
8402;DHT22;4238;48.404;9.498;2023-02-11T13:45:30;9.10;1.00
8402;DHT22;4238;48.404;9.498;2023-02-11T13:47:58;9.10;1.00
8402;DHT22;4238;48.404;9.498;2023-02-11T13:50:26;9.10;1.00
8402;DHT22;4238;48.404;9.498;2023-02-11T13:52:58;8.90;1.00
8402;DHT22;4238;48.404;9.498;2023-02-11T13:55:26;8.70;1.00
8402;DHT22;4238;48.404;9.498;2023-02-11T14:00:54;8.60;1.00
8402;DHT22;4238;48.404;9.498;2023-02-11T14:03:31;8.50;1.00
8402;DHT22;4238;48.404;9.498;2023-02-11T14:06:25;8.30;1.00
8402;DHT22;4238;48.404;9.498;2023-02-11T14:09:38;8.20;1.00
8402;DHT22;4238;48.404;9.498;2023-02-11T14:12:33;8.50;1.00
8402;DHT22;4238;48.404;9.498;2023-02-11T14:15:20;8.70;1.00
8402;DHT22;4238;48.404;9.498;2023-02-11T14:17:50;8.60;1.00
8402;DHT22;4238;48.404;9.498;2023-02-11T14:20:38;8.50;1.00
8402;DHT22;4238;48.404;9.498;2023-02-11T14:23:15;8.40;1.00
8402;DHT22;4238;48.404;9.498;2023-02-11T14:25:55;8.30;1.00
8402;DHT22;4238;48.404;9.498;2023-02-11T14:28:26;8.40;1.00
8402;DHT22;4238;48.404;9.498;2023-02-11T14:31:02;8.40;1.00
8402;DHT22;4238;48.404;9.498;2023-02-11T14:33:56;8.40;1.00
8402;DHT22;4238;48.404;9.498;2023-02-11T14:36:51;8.30;1.00
8402;DHT22;4238;48.404;9.498;2023-02-11T14:39:27;8.30;1.00
8402;DHT22;4238;48.404;9.498;2023-02-11T14:41:55;8.20;1.00
8402;DHT22;4238;48.404;9.498;2023-02-11T14:44:24;8.00;1.00
8402;DHT22;4238;48.404;9.498;2023-02-11T14:46:53;7.90;1.00
8402;DHT22;4238;48.404;9.498;2023-02-11T14:49:24;7.90;1.00
8402;DHT22;4238;48.404;9.498;2023-02-11T14:51:55;7.80;1.00
8402;DHT22;4238;48.404;9.498;2023-02-11T14:54:26;7.60;1.00
8402;DHT22;4238;48.404;9.498;2023-02-11T14:57:08;7.40;1.00
8402;DHT22;4238;48.404;9.498;2023-02-11T14:59:35;7.10;1.00
8402;DHT22;4238;48.404;9.498;2023-02-11T15:02:12;6.90;1.00
8402;DHT22;4238;48.404;9.498;2023-02-11T15:04:46;6.80;12.10
8402;DHT22;4238;48.404;9.498;2023-02-11T15:07:14;6.80;72.30
8402;DHT22;4238;48.404;9.498;2023-02-11T15:09:45;6.80;99.90
8402;DHT22;4238;48.404;9.498;2023-02-11T15:12:17;7.00;99.90
8402;DHT22;4238;48.404;9.498;2023-02-11T15:14:49;7.10;99.90
8402;DHT22;4238;48.404;9.498;2023-02-11T15:17:21;7.30;99.90
8402;DHT22;4238;48.404;9.498;2023-02-11T15:19:52;7.20;99.90
8402;DHT22;4238;48.404;9.498;2023-02-11T15:22:22;7.10;99.90
8402;DHT22;4238;48.404;9.498;2023-02-11T15:25:08;6.90;99.90
8402;DHT22;4238;48.404;9.498;2023-02-11T15:27:40;6.70;99.90
8402;DHT22;4238;48.404;9.498;2023-02-11T15:30:27;6.90;1.00
8402;DHT22;4238;48.404;9.498;2023-02-11T15:32:57;6.80;1.00
8402;DHT22;4238;48.404;9.498;2023-02-11T15:35:27;6.90;1.00
8402;DHT22;4238;48.404;9.498;2023-02-11T15:37:55;6.90;1.00
8402;DHT22;4238;48.404;9.498;2023-02-11T15:40:24;6.60;1.00
8402;DHT22;4238;48.404;9.498;2023-02-11T15:42:55;6.60;1.00
8402;DHT22;4238;48.404;9.498;2023-02-11T15:45:25;6.50;26.90
8402;DHT22;4238;48.404;9.498;2023-02-11T15:48:01;6.50;36.20
8402;DHT22;4238;48.404;9.498;2023-02-11T15:50:34;6.40;99.90
8402;DHT22;4238;48.404;9.498;2023-02-11T15:53:04;6.30;99.90
8402;DHT22;4238;48.404;9.498;2023-02-11T15:55:40;6.50;99.90
8402;DHT22;4238;48.404;9.498;2023-02-11T15:58:08;6.40;99.90
8402;DHT22;4238;48.404;9.498;2023-02-11T16:00:43;6.20;99.90
8402;DHT22;4238;48.404;9.498;2023-02-11T16:03:19;6.20;1.00
8402;DHT22;4238;48.404;9.498;2023-02-11T16:05:48;6.10;63.80
8402;DHT22;4238;48.404;9.498;2023-02-11T16:08:26;6.00;99.90
8402;DHT22;4238;48.404;9.498;2023-02-11T16:10:56;6.00;99.90
8402;DHT22;4238;48.404;9.498;2023-02-11T16:13:24;5.90;99.90
8402;DHT22;4238;48.404;9.498;2023-02-11T16:15:54;5.70;1.00
8402;DHT22;4238;48.404;9.498;2023-02-11T16:18:29;5.70;25.60
8402;DHT22;4238;48.404;9.498;2023-02-11T16:20:58;5.50;1.00
8402;DHT22;4238;48.404;9.498;2023-02-11T16:23:28;5.30;99.90
8402;DHT22;4238;48.404;9.498;2023-02-11T16:25:58;5.20;1.00
8402;DHT22;4238;48.404;9.498;2023-02-11T16:28:27;5.20;99.90
8402;DHT22;4238;48.404;9.498;2023-02-11T16:30:55;5.10;1.00
8402;DHT22;4238;48.404;9.498;2023-02-11T16:33:22;5.10;1.00
8402;DHT22;4238;48.404;9.498;2023-02-11T16:35:49;5.00;1.00
8402;DHT22;4238;48.404;9.498;2023-02-11T16:38:18;5.00;99.90
8402;DHT22;4238;48.404;9.498;2023-02-11T16:40:44;4.90;1.00
8402;DHT22;4238;48.404;9.498;2023-02-11T16:43:14;4.90;99.90
8402;DHT22;4238;48.404;9.498;2023-02-11T16:45:43;4.90;99.90
8402;DHT22;4238;48.404;9.498;2023-02-11T16:48:14;4.80;1.00
8402;DHT22;4238;48.404;9.498;2023-02-11T16:50:43;4.70;1.00
8402;DHT22;4238;48.404;9.498;2023-02-11T16:53:11;4.70;99.90
8402;DHT22;4238;48.404;9.498;2023-02-11T16:55:43;4.70;1.00
8402;DHT22;4238;48.404;9.498;2023-02-11T16:58:09;4.80;99.90